Time;durP1;ratioP1;P1;durP2;ratioP2;P2;SDS_P1;SDS_P2;PMS_P1;PMS_P2;Temp;Humidity;BMP_temperature;BMP_pressure;BME280_temperature;BME280_humidity;BME280_pressure;Samples;Min_cycle;Max_cycle;Signal;HPM_P1;HPM_P2
2022/04/05 03:00:39;;;;;;;12.37;11.17;;;5.20;99.90;;;;;;5806105;23;20778;-79
2022/04/05 03:03:05;;;;;;;11.17;10.17;;;5.10;99.90;;;;;;4938095;29;20224;-78
2022/04/05 03:05:31;;;;;;;12.40;10.50;;;5.00;99.90;;;;;;4938389;29;20240;-78
2022/04/05 03:07:57;;;;;;;14.80;12.37;;;5.00;99.90;;;;;;4935883;29;20189;-77
2022/04/05 03:10:23;;;;;;;12.73;11.50;;;5.00;99.90;;;;;;4936738;29;20214;-76
2022/04/05 03:12:49;;;;;;;13.40;12.27;;;5.00;99.90;;;;;;4956567;23;20228;-75
2022/04/05 03:15:14;;;;;;;14.57;13.20;;;4.90;99.90;;;;;;4935889;29;20294;-75
2022/04/05 03:17:45;;;;;;;15.60;14.13;;;4.90;99.90;;;;;;4927189;29;20326;-76
2022/04/05 03:20:12;;;;;;;17.17;15.77;;;4.90;99.90;;;;;;4925921;29;20217;-75
2022/04/05 03:22:42;;;;;;;20.13;18.57;;;4.90;99.90;;;;;;4936706;28;20287;-75
2022/04/05 03:25:10;;;;;;;20.40;18.50;;;4.90;99.90;;;;;;4935131;29;20182;-75
2022/04/05 03:27:40;;;;;;;20.27;18.20;;;4.90;99.90;;;;;;4936463;29;20534;-75
2022/04/05 03:30:08;;;;;;;19.53;16.87;;;4.90;99.90;;;;;;4929476;29;20179;-75
2022/04/05 03:32:34;;;;;;;16.80;15.20;;;4.90;99.90;;;;;;4916446;29;20184;-75
2022/04/05 03:35:00;;;;;;;18.20;16.57;;;4.90;99.90;;;;;;4916333;29;20199;-75
2022/04/05 03:37:25;;;;;;;17.27;15.60;;;4.90;99.90;;;;;;4917046;29;20265;-74
2022/04/05 03:39:51;;;;;;;16.97;15.47;;;4.90;99.90;;;;;;4915630;29;20395;-75
2022/04/05 03:42:17;;;;;;;19.97;18.37;;;4.90;99.90;;;;;;4916865;29;20189;-75
2022/04/05 03:44:43;;;;;;;16.73;15.10;;;4.90;99.90;;;;;;4916216;29;20223;-75
2022/04/05 03:47:08;;;;;;;16.70;15.27;;;4.80;99.90;;;;;;4917382;29;20235;-75
2022/04/05 03:49:34;;;;;;;16.87;15.17;;;4.70;99.90;;;;;;4916225;29;20183;-75
2022/04/05 03:52:00;;;;;;;18.27;16.23;;;4.70;99.90;;;;;;4910912;29;20183;-75
2022/04/05 03:54:25;;;;;;;16.87;15.47;;;4.70;99.90;;;;;;4902492;29;20243;-76
2022/04/05 03:56:51;;;;;;;18.93;16.10;;;4.70;99.90;;;;;;4897716;29;20286;-75
2022/04/05 03:59:17;;;;;;;15.67;14.23;;;4.60;99.90;;;;;;4898456;29;20203;-75
2022/04/05 04:01:43;;;;;;;14.57;13.13;;;4.60;99.90;;;;;;4897100;29;20199;-75
2022/04/05 04:04:09;;;;;;;14.17;12.73;;;4.60;99.90;;;;;;4898111;29;20307;-75
2022/04/05 04:06:35;;;;;;;18.00;13.23;;;4.60;99.90;;;;;;4896701;29;20207;-75
2022/04/05 04:09:01;;;;;;;19.97;12.63;;;4.60;99.90;;;;;;4897615;29;20226;-75
2022/04/05 04:11:26;;;;;;;15.80;13.60;;;4.60;99.90;;;;;;4921346;29;20191;-74
2022/04/05 04:13:52;;;;;;;17.90;16.30;;;4.60;99.90;;;;;;4934316;29;20280;-75
2022/04/05 04:16:18;;;;;;;21.67;19.67;;;4.50;99.90;;;;;;4934678;29;20205;-75
2022/04/05 04:18:44;;;;;;;21.67;19.93;;;4.60;99.90;;;;;;4935357;29;20186;-75
2022/04/05 04:21:10;;;;;;;26.70;24.63;;;4.50;99.90;;;;;;4934574;29;20182;-76
2022/04/05 04:23:36;;;;;;;24.73;22.70;;;4.50;99.90;;;;;;4935262;29;20316;-75
2022/04/05 04:26:02;;;;;;;24.77;22.60;;;4.50;99.90;;;;;;4934691;29;20189;-74
2022/04/05 04:28:29;;;;;;;27.53;25.50;;;4.50;99.90;;;;;;4934016;29;20210;-76
2022/04/05 04:30:54;;;;;;;22.87;20.57;;;4.50;99.90;;;;;;4935564;29;20178;-75
2022/04/05 04:33:20;;;;;;;24.63;22.73;;;4.40;99.90;;;;;;4935315;29;20575;-76
2022/04/05 04:35:46;;;;;;;26.57;24.10;;;4.40;99.90;;;;;;4934378;29;20237;-75
2022/04/05 04:38:13;;;;;;;25.27;19.47;;;4.40;99.90;;;;;;4933484;29;20696;-76
2022/04/05 04:40:39;;;;;;;19.30;17.40;;;4.40;99.90;;;;;;4934307;29;20249;-75
2022/04/05 04:43:05;;;;;;;19.23;17.30;;;4.40;99.90;;;;;;4935154;29;20255;-76
2022/04/05 04:45:31;;;;;;;18.67;16.63;;;4.40;99.90;;;;;;4935106;29;20283;-75
2022/04/05 04:47:57;;;;;;;19.57;17.47;;;4.50;99.90;;;;;;4922481;29;20686;-75
2022/04/05 04:50:23;;;;;;;18.23;16.33;;;4.50;99.90;;;;;;4916105;29;20179;-76
2022/04/05 04:52:49;;;;;;;17.60;15.90;;;4.40;99.90;;;;;;4914506;29;20921;-74
2022/04/05 04:55:15;;;;;;;18.90;17.07;;;4.40;99.90;;;;;;4916148;29;20179;-75
2022/04/05 04:57:41;;;;;;;18.93;16.93;;;4.40;99.90;;;;;;4914702;29;20221;-75
2022/04/05 05:00:07;;;;;;;16.03;14.43;;;4.40;99.90;;;;;;4915969;29;20179;-76
2022/04/05 05:02:50;;;;;;;19.30;15.90;;;4.40;99.90;;;;;;4916045;29;20592;-75
2022/04/05 05:05:22;;;;;;;21.97;15.47;;;4.50;99.90;;;;;;4915925;29;20192;-75
2022/04/05 05:07:50;;;;;;;17.43;13.70;;;4.50;99.90;;;;;;4915377;29;20824;-75
2022/04/05 05:10:19;;;;;;;19.00;14.37;;;4.50;99.90;;;;;;4914561;29;20597;-75
2022/04/05 05:12:45;;;;;;;15.53;13.73;;;4.50;99.90;;;;;;4915747;29;20193;-75
2022/04/05 05:15:17;;;;;;;17.47;14.43;;;4.50;99.90;;;;;;4914598;29;20182;-76
2022/04/05 05:17:43;;;;;;;16.10;14.37;;;4.60;99.90;;;;;;4914516;29;20213;-76
2022/04/05 05:20:10;;;;;;;17.60;15.80;;;4.50;99.90;;;;;;4915460;29;20190;-76
2022/04/05 05:22:37;;;;;;;16.30;13.90;;;4.60;99.90;;;;;;4915742;29;20206;-76
2022/04/05 05:25:03;;;;;;;17.03;14.77;;;4.50;99.90;;;;;;4924847;29;20187;-76
2022/04/05 05:27:29;;;;;;;15.50;13.90;;;4.60;99.90;;;;;;4927303;29;20195;-76
2022/04/05 05:29:55;;;;;;;16.40;14.67;;;4.60;99.90;;;;;;4926908;29;20198;-75
2022/04/05 05:32:21;;;;;;;15.47;12.93;;;4.60;99.90;;;;;;4929716;29;20187;-76
2022/04/05 05:34:47;;;;;;;21.50;16.33;;;4.60;99.90;;;;;;4922086;29;20244;-76
2022/04/05 05:37:13;;;;;;;18.47;16.60;;;4.60;99.90;;;;;;4914925;29;20186;-77
2022/04/05 05:39:39;;;;;;;16.20;14.10;;;4.60;99.90;;;;;;4915328;29;20194;-77
2022/04/05 05:42:06;;;;;;;26.50;15.60;;;4.60;99.90;;;;;;4915139;29;20199;-76
2022/04/05 05:44:33;;;;;;;16.70;14.90;;;4.60;99.90;;;;;;4914937;29;20225;-76
2022/04/05 05:47:00;;;;;;;15.80;13.90;;;4.60;99.90;;;;;;4920089;29;20612;-76
2022/04/05 05:49:26;;;;;;;16.90;15.10;;;4.70;99.90;;;;;;4932957;29;20631;-76
2022/04/05 05:51:52;;;;;;;24.13;15.77;;;4.70;99.90;;;;;;4934549;29;20198;-76
2022/04/05 05:54:18;;;;;;;16.80;15.00;;;4.70;99.90;;;;;;4927964;29;20213;-76
2022/04/05 05:56:44;;;;;;;17.03;15.43;;;4.70;99.90;;;;;;4913641;29;20674;-76
2022/04/05 05:59:10;;;;;;;20.20;18.03;;;4.70;99.90;;;;;;4914007;29;20629;-76
2022/04/05 06:01:37;;;;;;;18.03;16.37;;;4.70;99.90;;;;;;4913111;29;20218;-76
2022/04/05 06:04:03;;;;;;;18.17;16.47;;;4.70;99.90;;;;;;4913994;29;20219;-76
2022/04/05 06:06:29;;;;;;;18.30;16.27;;;4.70;99.90;;;;;;4915147;29;20193;-76
2022/04/05 06:08:55;;;;;;;18.27;16.57;;;4.70;99.90;;;;;;4914711;29;20182;-76
2022/04/05 06:11:22;;;;;;;17.77;15.43;;;4.80;99.90;;;;;;4915365;29;20190;-76
2022/04/05 06:13:49;;;;;;;18.47;16.50;;;4.80;99.90;;;;;;4907193;29;20718;-73
2022/04/05 06:16:15;;;;;;;22.70;20.80;;;4.90;99.90;;;;;;4899376;29;20222;-74
2022/04/05 06:18:42;;;;;;;22.20;20.00;;;4.90;99.90;;;;;;4896636;29;20276;-74
2022/04/05 06:21:09;;;;;;;17.97;16.43;;;4.90;99.90;;;;;;4914695;29;20564;-74
2022/04/05 06:23:35;;;;;;;18.43;16.53;;;4.90;99.90;;;;;;4897659;29;20305;-74
2022/04/05 06:26:01;;;;;;;20.73;18.60;;;4.90;99.90;;;;;;4912470;29;20282;-74
2022/04/05 06:28:26;;;;;;;21.10;19.10;;;4.90;99.90;;;;;;4911680;29;20269;-74
2022/04/05 06:30:52;;;;;;;24.57;22.33;;;4.90;99.90;;;;;;4915564;29;20184;-74
2022/04/05 06:33:22;;;;;;;20.43;18.10;;;4.90;99.90;;;;;;4914092;29;20203;-73
2022/04/05 06:35:56;;;;;;;20.53;18.73;;;4.90;99.90;;;;;;4898630;29;20187;-74
2022/04/05 06:38:23;;;;;;;23.23;18.70;;;4.90;99.90;;;;;;4899359;29;20190;-74
2022/04/05 06:40:49;;;;;;;19.97;17.97;;;4.90;99.90;;;;;;4898590;29;20231;-74
2022/04/05 06:43:19;;;;;;;20.60;18.40;;;4.90;99.90;;;;;;4898465;29;20219;-75
2022/04/05 06:45:46;;;;;;;32.20;29.90;;;5.00;99.90;;;;;;4898710;29;20569;-74
2022/04/05 06:48:12;;;;;;;17.97;16.30;;;5.10;99.90;;;;;;4898160;29;20263;-74
2022/04/05 06:50:38;;;;;;;19.83;18.23;;;5.20;99.90;;;;;;4900803;29;20183;-75
2022/04/05 06:53:06;;;;;;;17.97;16.37;;;5.20;99.90;;;;;;4903893;29;20286;-74
2022/04/05 06:55:32;;;;;;;21.37;19.70;;;5.20;99.90;;;;;;4913575;29;20195;-75
2022/04/05 06:57:57;;;;;;;21.00;17.47;;;5.30;99.90;;;;;;4905487;29;20205;-75
2022/04/05 07:00:25;;;;;;;19.83;18.23;;;5.30;99.90;;;;;;4931498;29;20186;-75
2022/04/05 07:02:52;;;;;;;19.43;17.57;;;5.30;99.90;;;;;;4935684;29;20186;-75
2022/04/05 07:05:18;;;;;;;21.27;19.13;;;5.30;99.90;;;;;;4937127;29;20186;-75
2022/04/05 07:07:45;;;;;;;20.07;18.13;;;5.30;99.90;;;;;;4936371;29;20709;-75
2022/04/05 07:10:14;;;;;;;18.43;16.53;;;5.30;99.90;;;;;;4936012;29;20183;-75
2022/04/05 07:12:41;;;;;;;18.13;16.53;;;5.30;99.90;;;;;;4919260;29;20206;-75
2022/04/05 07:15:09;;;;;;;17.30;15.57;;;5.30;99.90;;;;;;4916612;29;20186;-75
2022/04/05 07:17:35;;;;;;;19.27;17.53;;;5.30;99.90;;;;;;4917797;29;20262;-75
2022/04/05 07:20:00;;;;;;;18.23;16.43;;;5.30;99.90;;;;;;4917000;29;20287;-74
2022/04/05 07:22:26;;;;;;;18.53;16.97;;;5.40;99.90;;;;;;4918409;29;20179;-75
2022/04/05 07:24:52;;;;;;;18.07;16.27;;;5.40;99.90;;;;;;4916544;29;20633;-74
2022/04/05 07:27:18;;;;;;;22.50;20.30;;;5.40;99.90;;;;;;4917589;29;20226;-73
2022/04/05 07:29:44;;;;;;;21.23;19.17;;;5.40;99.90;;;;;;4917474;29;20183;-74
2022/04/05 07:32:11;;;;;;;18.30;16.40;;;5.50;99.90;;;;;;4917070;29;20183;-74
2022/04/05 07:34:37;;;;;;;18.33;16.83;;;5.50;99.90;;;;;;4917329;29;20203;-74
2022/04/05 07:37:03;;;;;;;19.20;17.30;;;5.60;99.90;;;;;;4915879;29;20249;-74
2022/04/05 07:39:30;;;;;;;17.73;16.13;;;5.60;99.90;;;;;;4917386;29;20202;-74
2022/04/05 07:41:57;;;;;;;16.57;14.57;;;5.60;99.90;;;;;;4916897;29;20246;-74
2022/04/05 07:44:23;;;;;;;18.63;17.10;;;5.70;99.90;;;;;;4916976;29;20314;-74
2022/04/05 07:46:49;;;;;;;20.87;18.70;;;5.70;99.90;;;;;;4917198;29;20277;-74
2022/04/05 07:49:15;;;;;;;19.67;17.80;;;5.80;99.90;;;;;;4905983;29;20706;-75
2022/04/05 07:51:41;;;;;;;20.90;19.07;;;5.70;99.90;;;;;;4915644;29;20206;-75
2022/04/05 07:54:07;;;;;;;20.50;17.50;;;5.70;99.90;;;;;;4918571;29;20222;-73
2022/04/05 07:56:33;;;;;;;19.17;17.67;;;5.80;99.90;;;;;;4916892;29;20191;-74
2022/04/05 07:59:00;;;;;;;20.13;18.63;;;5.80;99.90;;;;;;4916286;29;20195;-74
2022/04/05 08:01:29;;;;;;;19.73;18.23;;;5.90;99.90;;;;;;4917004;29;20185;-74
2022/04/05 08:03:56;;;;;;;22.30;20.73;;;6.00;99.90;;;;;;4915416;29;20218;-74
2022/04/05 08:06:23;;;;;;;20.33;18.57;;;6.10;99.90;;;;;;4916568;29;20190;-74
2022/04/05 08:08:50;;;;;;;15.43;14.13;;;6.00;99.90;;;;;;4915110;29;20674;-73
2022/04/05 08:11:16;;;;;;;19.43;14.40;;;6.00;99.90;;;;;;4915579;29;20719;-74
2022/04/05 08:13:42;;;;;;;15.40;13.90;;;6.10;99.90;;;;;;4914905;29;20255;-74
2022/04/05 08:16:07;;;;;;;15.63;14.13;;;6.10;99.90;;;;;;4915620;29;20230;-74
2022/04/05 08:18:33;;;;;;;17.33;15.73;;;6.00;99.90;;;;;;4915000;29;20270;-75
2022/04/05 08:20:59;;;;;;;17.40;15.77;;;6.20;99.90;;;;;;4916551;29;20191;-74
2022/04/05 08:23:25;;;;;;;16.67;15.13;;;6.30;99.90;;;;;;4914952;29;20218;-75
2022/04/05 08:25:52;;;;;;;17.47;15.87;;;6.30;99.90;;;;;;4921358;29;20190;-74
2022/04/05 08:28:17;;;;;;;20.40;18.63;;;6.40;99.90;;;;;;4921889;29;20183;-74
2022/04/05 08:30:43;;;;;;;20.73;19.03;;;6.50;99.90;;;;;;4922307;29;20213;-74
2022/04/05 08:33:09;;;;;;;23.90;21.93;;;6.50;99.90;;;;;;4916304;29;20584;-74
2022/04/05 08:35:35;;;;;;;23.17;21.57;;;6.60;99.90;;;;;;4926415;29;20191;-72
2022/04/05 08:38:00;;;;;;;25.63;23.83;;;6.70;99.90;;;;;;4920483;29;20194;-73
2022/04/05 08:40:26;;;;;;;23.97;22.23;;;6.70;99.90;;;;;;4916583;29;20187;-73
2022/04/05 08:42:55;;;;;;;56.23;51.83;;;6.80;99.90;;;;;;4915084;29;20191;-74
2022/04/05 08:45:22;;;;;;;65.47;61.53;;;6.90;99.90;;;;;;4915942;29;20179;-74
2022/04/05 08:47:52;;;;;;;68.10;63.90;;;6.70;99.90;;;;;;4915695;29;20183;-72
2022/04/05 08:50:21;;;;;;;47.80;44.93;;;6.60;99.90;;;;;;4916062;29;20179;-74
2022/04/05 08:52:48;;;;;;;42.53;39.80;;;6.50;99.90;;;;;;4913710;29;20282;-74
2022/04/05 08:55:15;;;;;;;22.20;20.60;;;6.50;99.90;;;;;;4915665;29;20599;-74
2022/04/05 08:57:41;;;;;;;23.30;21.57;;;6.50;99.90;;;;;;4914575;29;20191;-74
2022/04/05 09:00:10;;;;;;;23.00;20.93;;;6.70;99.90;;;;;;4914701;29;20187;-73
2022/04/05 09:02:36;;;;;;;28.03;26.13;;;6.80;99.90;;;;;;4914639;29;20183;-74
2022/04/05 09:05:03;;;;;;;28.57;26.70;;;6.90;99.90;;;;;;4916335;29;20270;-74
2022/04/05 09:07:31;;;;;;;31.27;29.23;;;6.90;99.90;;;;;;4914255;29;20187;-73
2022/04/05 09:10:17;;;;;;;30.13;28.00;;;7.00;99.90;;;;;;4915790;29;20187;-73
2022/04/05 09:12:42;;;;;;;35.67;33.10;;;7.10;99.90;;;;;;4914452;29;20262;-74
2022/04/05 09:15:20;;;;;;;41.77;38.83;;;7.30;99.90;;;;;;4950951;23;20317;-75
2022/04/05 09:17:48;;;;;;;78.67;74.17;;;7.50;99.90;;;;;;4932685;29;20698;-75
2022/04/05 09:20:15;;;;;;;81.40;77.00;;;7.60;99.90;;;;;;4933512;29;20298;-76
2022/04/05 09:22:42;;;;;;;70.77;66.67;;;7.60;99.90;;;;;;4932197;29;20223;-75
2022/04/05 09:25:12;;;;;;;79.37;75.03;;;7.80;99.90;;;;;;4919944;29;20207;-76
2022/04/05 09:27:49;;;;;;;81.03;76.53;;;7.80;99.90;;;;;;4898006;29;20183;-76
2022/04/05 09:30:23;;;;;;;74.47;70.37;;;7.80;99.90;;;;;;4896591;29;20186;-76
2022/04/05 09:32:50;;;;;;;16.63;15.23;;;8.10;99.90;;;;;;4896092;29;20207;-75
2022/04/05 09:35:18;;;;;;;22.83;21.13;;;8.10;99.90;;;;;;4896331;29;20215;-75
2022/04/05 09:37:44;;;;;;;32.80;30.53;;;8.00;99.90;;;;;;4896045;29;20187;-76
2022/04/05 09:40:22;;;;;;;36.37;33.63;;;8.10;99.90;;;;;;4895931;29;20183;-75
2022/04/05 09:43:08;;;;;;;38.40;35.87;;;8.30;99.90;;;;;;4897316;29;20642;-76
2022/04/05 09:45:57;;;;;;;44.90;42.00;;;8.30;99.90;;;;;;4910839;29;20195;-75
2022/04/05 09:48:35;;;;;;;42.33;39.67;;;8.50;99.90;;;;;;4911967;29;20180;-75
2022/04/05 09:51:10;;;;;;;24.77;23.13;;;8.50;99.90;;;;;;4915073;29;20186;-75
2022/04/05 09:53:38;;;;;;;23.73;21.93;;;8.40;99.90;;;;;;4915068;29;20237;-74
2022/04/05 09:56:31;;;;;;;14.30;13.27;;;8.30;99.90;;;;;;4915019;29;20241;-74
2022/04/05 09:59:06;;;;;;;17.57;16.00;;;8.40;99.90;;;;;;4913405;29;20274;-74
2022/04/05 10:01:35;;;;;;;22.83;21.23;;;8.50;99.90;;;;;;4915074;29;20190;-74
2022/04/05 10:04:12;;;;;;;15.93;14.60;;;8.50;99.90;;;;;;4914731;29;20215;-74
2022/04/05 10:06:43;;;;;;;13.27;12.10;;;8.40;99.90;;;;;;4913770;29;20214;-74
2022/04/05 10:09:09;;;;;;;16.83;15.53;;;8.50;99.90;;;;;;4914694;29;20183;-74
2022/04/05 10:11:37;;;;;;;16.67;15.17;;;8.60;99.90;;;;;;4913504;29;20210;-74
2022/04/05 10:14:04;;;;;;;22.13;20.50;;;8.40;99.90;;;;;;4913451;29;20317;-74
2022/04/05 10:16:31;;;;;;;29.97;28.00;;;8.30;99.90;;;;;;4914847;29;20604;-74
2022/04/05 10:19:01;;;;;;;39.10;36.60;;;8.40;99.90;;;;;;4914356;29;20187;-74
2022/04/05 10:21:29;;;;;;;33.03;30.83;;;8.40;99.90;;;;;;4914715;29;20198;-74
2022/04/05 10:23:56;;;;;;;27.17;25.07;;;8.50;99.90;;;;;;4914583;29;20222;-74
2022/04/05 10:26:29;;;;;;;24.90;23.10;;;8.40;99.90;;;;;;4915223;29;20186;-74
2022/04/05 10:29:00;;;;;;;21.40;19.90;;;8.60;99.90;;;;;;4913087;29;20194;-74
2022/04/05 10:31:42;;;;;;;45.80;43.00;;;8.80;99.90;;;;;;4914753;29;20186;-73
2022/04/05 10:34:28;;;;;;;39.80;37.00;;;8.80;99.90;;;;;;4913402;29;20289;-74
2022/04/05 10:37:18;;;;;;;23.60;22.00;;;8.90;99.90;;;;;;4914253;29;20187;-73
2022/04/05 10:40:04;;;;;;;22.90;21.07;;;8.80;99.90;;;;;;4914608;29;20261;-74
2022/04/05 10:42:42;;;;;;;38.93;36.57;;;8.90;99.90;;;;;;4914376;29;20194;-74
2022/04/05 10:45:25;;;;;;;20.17;18.83;;;8.90;99.90;;;;;;4913457;29;20699;-74
2022/04/05 10:48:11;;;;;;;15.60;14.47;;;8.90;99.90;;;;;;4914299;29;20202;-73
2022/04/05 10:50:37;;;;;;;19.30;17.73;;;8.80;99.90;;;;;;4914622;29;20560;-73
2022/04/05 10:53:20;;;;;;;41.17;38.77;;;8.80;99.90;;;;;;4915276;29;20187;-73
2022/04/05 10:56:04;;;;;;;37.63;35.17;;;8.70;99.90;;;;;;4931658;29;20187;-73
2022/04/05 10:58:31;;;;;;;40.67;38.43;;;8.80;99.90;;;;;;4916024;29;20565;-74
2022/04/05 11:01:23;;;;;;;36.13;34.00;;;8.60;99.90;;;;;;4914793;29;20187;-73
2022/04/05 11:04:17;;;;;;;33.03;31.03;;;8.60;99.90;;;;;;4914243;29;20298;-74
2022/04/05 11:06:59;;;;;;;30.13;28.20;;;8.50;99.90;;;;;;4913158;29;20203;-73
2022/04/05 11:09:39;;;;;;;19.80;18.37;;;8.30;99.90;;;;;;4914249;29;20194;-74
2022/04/05 11:12:10;;;;;;;16.13;14.53;;;8.40;99.90;;;;;;4913056;29;20278;-73
2022/04/05 11:14:41;;;;;;;17.60;16.40;;;8.30;99.90;;;;;;4912999;29;20305;-73
2022/04/05 11:17:09;;;;;;;29.03;27.13;;;8.30;99.90;;;;;;4915472;29;20223;-74
2022/04/05 11:19:42;;;;;;;36.07;33.77;;;8.30;99.90;;;;;;4916539;29;20217;-73
2022/04/05 11:22:20;;;;;;;66.03;61.97;;;8.30;99.90;;;;;;4917729;29;20276;-74
2022/04/05 11:25:04;;;;;;;80.70;76.43;;;8.50;99.90;;;;;;4916307;29;20573;-74
2022/04/05 11:27:47;;;;;;;51.77;48.67;;;8.60;99.90;;;;;;4917223;29;20250;-74
2022/04/05 11:30:28;;;;;;;45.83;43.13;;;8.70;99.90;;;;;;4917586;29;20273;-74
2022/04/05 11:33:09;;;;;;;62.10;58.60;;;8.80;99.90;;;;;;4916171;29;20195;-74
2022/04/05 11:35:42;;;;;;;27.43;25.47;;;8.90;99.90;;;;;;4917512;29;20194;-74
2022/04/05 11:38:18;;;;;;;32.97;30.57;;;8.90;99.90;;;;;;4917172;29;20183;-73
2022/04/05 11:40:45;;;;;;;24.93;22.97;;;9.10;99.90;;;;;;4917519;29;20728;-74
2022/04/05 11:43:24;;;;;;;16.43;14.90;;;9.20;99.90;;;;;;4916134;29;20211;-74
2022/04/05 11:46:05;;;;;;;16.27;14.20;;;9.40;99.90;;;;;;4906126;29;20179;-74
2022/04/05 11:48:31;;;;;;;15.67;14.50;;;9.70;99.90;;;;;;4915439;29;20231;-73
2022/04/05 11:51:06;;;;;;;18.27;16.83;;;9.80;99.90;;;;;;4915918;29;20269;-74
2022/04/05 11:53:32;;;;;;;26.23;24.47;;;9.90;99.90;;;;;;4917527;29;20221;-74
2022/04/05 11:56:20;;;;;;;29.07;27.17;;;10.10;99.90;;;;;;4916104;29;20642;-73
2022/04/05 11:58:52;;;;;;;142.67;133.93;;;10.20;99.90;;;;;;4915704;29;20183;-74
2022/04/05 12:01:36;;;;;;;43.00;40.53;;;10.10;99.90;;;;;;4916904;29;20194;-74
2022/04/05 12:04:08;;;;;;;32.93;30.87;;;10.20;99.90;;;;;;4915480;29;20222;-74
2022/04/05 12:06:38;;;;;;;18.90;17.50;;;10.40;99.90;;;;;;4916988;29;20187;-74
2022/04/05 12:09:13;;;;;;;17.47;16.20;;;10.40;99.90;;;;;;4909593;29;20192;-73
2022/04/05 12:11:41;;;;;;;15.97;14.67;;;10.30;99.90;;;;;;4920097;29;20217;-73
2022/04/05 12:14:09;;;;;;;21.53;20.17;;;10.20;99.90;;;;;;4909380;29;20707;-74
2022/04/05 12:16:55;;;;;;;30.73;28.83;;;10.30;99.90;;;;;;4916649;29;20600;-73
2022/04/05 12:19:28;;;;;;;14.87;13.87;;;10.50;99.90;;;;;;4916637;29;20183;-73
2022/04/05 12:22:02;;;;;;;14.47;13.47;;;10.50;99.90;;;;;;4916637;29;20191;-73
2022/04/05 12:24:29;;;;;;;12.33;11.33;;;10.50;99.90;;;;;;4915221;29;20247;-73
2022/04/05 12:26:59;;;;;;;14.70;13.50;;;10.60;99.90;;;;;;4916236;29;20213;-73
2022/04/05 12:29:26;;;;;;;12.93;11.83;;;10.70;99.90;;;;;;4916258;29;20183;-73
2022/04/05 12:31:53;;;;;;;13.80;12.63;;;10.90;99.90;;;;;;4915187;29;20179;-73
2022/04/05 12:34:20;;;;;;;12.23;11.07;;;11.00;99.90;;;;;;4915335;29;20758;-73
2022/04/05 12:36:57;;;;;;;12.57;11.63;;;11.30;99.90;;;;;;4916375;29;20190;-73
2022/04/05 12:39:25;;;;;;;38.83;36.57;;;11.50;99.90;;;;;;4929806;29;20190;-73
2022/04/05 12:42:11;;;;;;;10.57;9.67;;;11.40;99.90;;;;;;4932367;29;20195;-74
2022/04/05 12:44:47;;;;;;;8.37;7.57;;;11.30;99.90;;;;;;4918454;29;20234;-74
2022/04/05 12:47:25;;;;;;;10.33;9.53;;;11.30;99.90;;;;;;4915333;29;20182;-74
2022/04/05 12:49:53;;;;;;;9.77;8.90;;;11.50;99.90;;;;;;4916204;29;20242;-74
2022/04/05 12:52:29;;;;;;;9.10;8.30;;;11.40;99.90;;;;;;4915162;29;20243;-74
2022/04/05 12:54:58;;;;;;;8.77;8.07;;;11.30;99.90;;;;;;4916383;29;20303;-73
2022/04/05 12:57:29;;;;;;;9.20;8.40;;;11.10;99.90;;;;;;4914811;29;20284;-74
2022/04/05 13:00:10;;;;;;;7.90;7.20;;;11.10;99.90;;;;;;4916346;29;20277;-74
2022/04/05 13:02:40;;;;;;;7.77;7.07;;;11.00;99.90;;;;;;4914967;29;20263;-73
2022/04/05 13:07:59;;;;;;;8.47;7.83;;;11.00;99.90;;;;;;4915715;29;20198;-73
2022/04/05 13:10:36;;;;;;;7.50;6.90;;;11.00;99.90;;;;;;4916258;29;20850;-73
2022/04/05 13:13:38;;;;;;;8.07;7.47;;;11.00;99.90;;;;;;4915961;29;20183;-74
2022/04/05 13:16:08;;;;;;;7.63;7.03;;;10.90;99.90;;;;;;4857198;29;20243;-74
2022/04/05 13:18:41;;;;;;;7.57;7.00;;;10.90;99.90;;;;;;4901518;29;20204;-74
2022/04/05 13:21:15;;;;;;;8.20;7.50;;;10.90;99.90;;;;;;4915613;29;20264;-74
2022/04/05 13:23:42;;;;;;;19.90;16.60;;;10.80;99.90;;;;;;4915582;29;20221;-74
2022/04/05 13:26:20;;;;;;;23.20;17.93;;;10.70;99.90;;;;;;4914783;29;20207;-74
2022/04/05 13:28:47;;;;;;;11.97;11.17;;;10.70;99.90;;;;;;4909549;29;20194;-73
2022/04/05 13:31:17;;;;;;;10.87;9.93;;;10.70;99.90;;;;;;4915390;29;20175;-74
2022/04/05 13:33:44;;;;;;;11.13;10.33;;;10.70;99.90;;;;;;4915092;29;20246;-74
2022/04/05 13:36:11;;;;;;;8.20;7.50;;;10.60;99.90;;;;;;4915133;29;20186;-74
2022/04/05 13:38:38;;;;;;;8.87;8.17;;;10.60;99.90;;;;;;4913736;29;20656;-74
2022/04/05 13:41:07;;;;;;;9.33;8.63;;;10.70;99.90;;;;;;4914821;29;20306;-74
2022/04/05 13:43:34;;;;;;;22.77;21.47;;;10.90;99.90;;;;;;4914906;29;20223;-74
2022/04/05 13:46:00;;;;;;;34.47;32.57;;;11.00;99.90;;;;;;4915292;29;20190;-74
2022/04/05 13:48:25;;;;;;;28.07;26.43;;;11.10;99.90;;;;;;4914732;29;20195;-73
2022/04/05 13:50:51;;;;;;;22.27;21.07;;;10.90;99.90;;;;;;4915079;29;20190;-74
2022/04/05 13:53:19;;;;;;;31.73;29.87;;;11.00;99.90;;;;;;4915098;29;20357;-73
2022/04/05 13:55:45;;;;;;;23.37;21.87;;;11.10;99.90;;;;;;4915522;29;20197;-73
2022/04/05 13:58:11;;;;;;;15.83;14.87;;;11.10;99.90;;;;;;4914836;29;20736;-73
2022/04/05 14:00:39;;;;;;;11.87;10.97;;;11.10;99.90;;;;;;4913753;29;20190;-75
2022/04/05 14:03:05;;;;;;;8.90;8.30;;;11.10;99.90;;;;;;4913633;29;20188;-72
2022/04/05 14:05:31;;;;;;;7.97;7.37;;;11.10;99.90;;;;;;4915085;29;20194;-75
2022/04/05 14:07:57;;;;;;;7.33;6.77;;;11.20;99.90;;;;;;4915004;29;20191;-75
2022/04/05 14:10:22;;;;;;;11.97;10.80;;;11.20;99.90;;;;;;4913941;29;20190;-74
2022/04/05 14:12:48;;;;;;;11.37;10.47;;;11.20;99.90;;;;;;4913712;29;20222;-74
2022/04/05 14:15:14;;;;;;;8.60;8.00;;;11.30;99.90;;;;;;4914719;29;20281;-74
2022/04/05 14:17:40;;;;;;;7.83;7.23;;;11.30;99.90;;;;;;4914567;29;20270;-74
2022/04/05 14:20:08;;;;;;;8.40;7.77;;;11.40;99.90;;;;;;4914071;29;20178;-75
2022/04/05 14:22:34;;;;;;;9.50;8.50;;;11.40;99.90;;;;;;4920415;29;20215;-74
2022/04/05 14:25:02;;;;;;;8.40;7.67;;;11.40;99.90;;;;;;4924622;29;20283;-74
2022/04/05 14:27:29;;;;;;;8.17;7.40;;;11.40;99.90;;;;;;4914735;29;20187;-75
2022/04/05 14:29:55;;;;;;;8.03;7.43;;;11.40;99.90;;;;;;4915002;29;20189;-74
2022/04/05 14:32:21;;;;;;;7.60;7.03;;;11.40;99.90;;;;;;4914942;29;20181;-74
2022/04/05 14:34:46;;;;;;;7.93;7.33;;;11.20;99.90;;;;;;4914797;29;20210;-74
2022/04/05 14:37:12;;;;;;;8.10;7.50;;;11.10;99.90;;;;;;4913368;29;20189;-74
2022/04/05 14:39:38;;;;;;;8.47;7.77;;;11.10;99.90;;;;;;4914663;29;20669;-74
2022/04/05 14:42:05;;;;;;;7.73;7.23;;;11.00;99.90;;;;;;4914775;29;20211;-74
2022/04/05 14:44:31;;;;;;;7.30;6.80;;;10.90;99.90;;;;;;4913361;29;20217;-75
2022/04/05 14:47:00;;;;;;;10.00;9.20;;;10.90;99.90;;;;;;4914336;29;20543;-74
2022/04/05 14:49:27;;;;;;;8.67;7.97;;;10.70;99.90;;;;;;4913359;29;20274;-74
2022/04/05 14:51:54;;;;;;;10.37;9.77;;;10.80;99.90;;;;;;4915809;29;20183;-75
2022/04/05 14:54:19;;;;;;;14.30;13.40;;;10.70;99.90;;;;;;4918422;29;20206;-74
2022/04/05 14:56:45;;;;;;;28.77;27.03;;;10.80;99.90;;;;;;4916863;29;20187;-74
2022/04/05 14:59:11;;;;;;;18.63;17.57;;;10.80;99.90;;;;;;4917070;29;20189;-74
2022/04/05 15:01:37;;;;;;;11.47;10.70;;;10.80;99.90;;;;;;4917480;29;20580;-75
2022/04/05 15:04:03;;;;;;;9.57;8.77;;;10.80;99.90;;;;;;4917883;29;20275;-76
2022/04/05 15:06:29;;;;;;;7.80;7.17;;;10.80;99.90;;;;;;4917725;29;20194;-76
2022/04/05 15:08:55;;;;;;;15.77;14.77;;;10.80;99.90;;;;;;4916612;29;20279;-75
2022/04/05 15:11:21;;;;;;;15.00;13.93;;;10.90;99.90;;;;;;4918610;29;20278;-75
2022/04/05 15:13:48;;;;;;;9.93;9.33;;;11.00;99.90;;;;;;4917900;29;20295;-75
2022/04/05 15:16:15;;;;;;;8.77;8.27;;;11.00;99.90;;;;;;4918554;29;20657;-74
2022/04/05 15:18:41;;;;;;;6.67;6.17;;;10.90;99.90;;;;;;4917814;29;20191;-76
2022/04/05 15:21:07;;;;;;;6.40;5.97;;;10.90;99.90;;;;;;4918067;29;20246;-76
2022/04/05 15:23:32;;;;;;;7.20;6.60;;;10.90;99.90;;;;;;4955036;23;20263;-73
2022/04/05 15:25:59;;;;;;;17.73;16.73;;;10.80;99.90;;;;;;4935736;29;20691;-75
2022/04/05 15:28:26;;;;;;;40.90;38.77;;;10.80;99.90;;;;;;4935132;29;20174;-73
2022/04/05 15:30:51;;;;;;;29.73;27.77;;;10.80;99.90;;;;;;4928824;29;20218;-74
2022/04/05 15:33:17;;;;;;;46.43;43.43;;;10.80;99.90;;;;;;4918180;29;20231;-74
2022/04/05 15:35:43;;;;;;;79.93;75.63;;;10.80;99.90;;;;;;4915058;29;20249;-74
2022/04/05 15:38:10;;;;;;;87.37;82.87;;;10.80;99.90;;;;;;4928839;29;20237;-74
2022/04/05 15:40:36;;;;;;;86.07;81.70;;;10.70;99.90;;;;;;4937025;29;20512;-75
2022/04/05 15:43:04;;;;;;;69.83;66.07;;;10.60;99.90;;;;;;4935461;29;20202;-74
2022/04/05 15:45:30;;;;;;;64.37;61.00;;;10.60;99.90;;;;;;4935362;29;20269;-74
2022/04/05 15:47:56;;;;;;;55.37;52.27;;;10.60;99.90;;;;;;4927480;29;20206;-75